createdAt,value
2018-05-02T00:00:12.854Z,3.53
2018-05-02T00:02:40.427Z,3.80
2018-05-02T00:05:08.333Z,4.20
2018-05-02T00:07:35.909Z,4.07
2018-05-02T00:10:03.528Z,4.87
2018-05-02T00:12:31.318Z,4.20
2018-05-02T00:14:59.086Z,4.80
2018-05-02T00:17:26.657Z,4.47
2018-05-02T00:19:54.216Z,4.23
2018-05-02T00:22:21.841Z,5.00
2018-05-02T00:24:49.638Z,5.23
2018-05-02T00:27:17.293Z,4.60
2018-05-02T00:29:44.845Z,5.57
2018-05-02T00:32:12.445Z,4.97
2018-05-02T00:34:40.001Z,5.13
2018-05-02T00:37:07.597Z,4.73
2018-05-02T00:39:35.170Z,4.80
2018-05-02T00:42:02.800Z,5.17
2018-05-02T00:44:31.233Z,5.20
2018-05-02T00:46:58.823Z,5.27
2018-05-02T00:49:27.030Z,5.13
2018-05-02T00:51:54.617Z,5.20
2018-05-02T00:54:22.189Z,5.83
2018-05-02T00:56:49.812Z,5.53
2018-05-02T00:59:17.365Z,4.97
2018-05-02T01:01:45.077Z,4.70
2018-05-02T01:04:12.917Z,4.67
2018-05-02T01:06:40.615Z,4.00
2018-05-02T01:09:08.233Z,4.83
2018-05-02T01:11:35.798Z,5.60
2018-05-02T01:14:03.407Z,3.90
2018-05-02T01:16:31.754Z,5.13
2018-05-02T01:18:59.585Z,4.30
2018-05-02T01:21:27.174Z,5.20
2018-05-02T01:23:54.787Z,5.00
2018-05-02T01:26:22.349Z,5.30
2018-05-02T01:28:50.041Z,5.00
2018-05-02T01:31:17.614Z,5.30
2018-05-02T01:33:45.228Z,5.07
2018-05-02T01:36:12.798Z,5.00
2018-05-02T01:38:40.380Z,5.30
2018-05-02T01:41:07.937Z,4.77
2018-05-02T01:43:35.537Z,5.40
2018-05-02T01:46:03.907Z,5.07
2018-05-02T01:48:31.469Z,5.17
2018-05-02T01:50:59.865Z,5.10
2018-05-02T01:53:28.212Z,5.47
2018-05-02T01:55:56.760Z,5.60
2018-05-02T01:58:24.371Z,5.00
2018-05-02T02:00:52.029Z,5.37
2018-05-02T02:03:19.790Z,5.20
2018-05-02T02:05:47.397Z,4.80
2018-05-02T02:08:15.093Z,5.00
2018-05-02T02:10:42.777Z,6.17
2018-05-02T02:13:11.104Z,5.30
2018-05-02T02:15:38.695Z,5.60
2018-05-02T02:18:06.273Z,5.20
2018-05-02T02:20:34.621Z,5.27
2018-05-02T02:23:02.347Z,6.43
2018-05-02T02:25:30.011Z,6.10
2018-05-02T02:27:57.632Z,5.90
2018-05-02T02:30:25.198Z,4.30
2018-05-02T02:32:53.570Z,5.80
2018-05-02T02:35:21.945Z,4.70
2018-05-02T02:37:50.285Z,4.90
2018-05-02T02:40:17.879Z,4.40
2018-05-02T02:42:45.538Z,4.80
2018-05-02T02:45:13.906Z,4.27
2018-05-02T02:47:41.468Z,4.87
2018-05-02T02:50:10.097Z,4.50
2018-05-02T02:52:37.708Z,4.77
2018-05-02T02:55:05.257Z,4.67
2018-05-02T02:57:34.333Z,4.47
2018-05-02T03:00:01.929Z,4.53
2018-05-02T03:02:30.254Z,4.40
2018-05-02T03:04:57.850Z,4.70
2018-05-02T03:07:25.410Z,4.40
2018-05-02T03:09:52.987Z,4.87
2018-05-02T03:12:21.381Z,4.80
2018-05-02T03:14:48.926Z,4.90
2018-05-02T03:17:17.347Z,4.70
2018-05-02T03:19:45.080Z,5.00
2018-05-02T03:22:12.690Z,4.63
2018-05-02T03:24:40.295Z,5.03
2018-05-02T03:27:07.892Z,3.87
2018-05-02T03:29:35.494Z,4.50
2018-05-02T03:32:03.826Z,4.43
2018-05-02T03:34:31.655Z,5.60
2018-05-02T03:36:59.333Z,4.30
2018-05-02T03:39:26.927Z,4.53
2018-05-02T03:41:54.486Z,4.97
2018-05-02T03:44:22.089Z,4.60
2018-05-02T03:46:49.645Z,4.77
2018-05-02T03:49:18.003Z,4.57
2018-05-02T03:51:46.362Z,4.73
2018-05-02T03:54:14.037Z,4.93
2018-05-02T03:56:41.756Z,4.43
2018-05-02T03:59:09.429Z,5.13
2018-05-02T04:01:48.797Z,4.60
2018-05-02T04:04:28.179Z,6.97
2018-05-02T04:09:53.742Z,5.60
2018-05-02T04:12:21.509Z,16.53
2018-05-02T04:14:49.155Z,8.53
2018-05-02T04:17:16.746Z,5.53
2018-05-02T04:19:44.303Z,5.00
2018-05-02T04:22:12.068Z,4.70
2018-05-02T04:24:39.622Z,5.13
2018-05-02T04:27:07.193Z,4.47
2018-05-02T04:29:35.619Z,4.80
2018-05-02T04:32:03.233Z,4.27
2018-05-02T04:34:31.614Z,5.10
2018-05-02T04:36:59.974Z,4.50
2018-05-02T04:39:27.570Z,5.03
2018-05-02T04:41:55.256Z,5.10
2018-05-02T04:44:23.859Z,4.77
2018-05-02T04:46:51.443Z,5.30
2018-05-02T04:49:19.053Z,6.27
2018-05-02T04:51:46.641Z,4.90
2018-05-02T04:54:15.265Z,5.10
2018-05-02T04:56:42.832Z,4.57
2018-05-02T04:59:10.427Z,4.77
2018-05-02T05:01:38.009Z,5.63
2018-05-02T05:04:05.618Z,5.20
2018-05-02T05:06:33.187Z,5.20
2018-05-02T05:09:00.756Z,6.10
2018-05-02T05:11:28.355Z,5.90
2018-05-02T05:13:56.725Z,5.47
2018-05-02T05:16:24.348Z,5.57
2018-05-02T05:18:51.990Z,5.13
2018-05-02T05:21:19.614Z,4.80
2018-05-02T05:23:47.299Z,5.07
2018-05-02T05:26:14.990Z,4.73
2018-05-02T05:28:43.241Z,5.00
2018-05-02T05:31:11.035Z,5.10
2018-05-02T05:33:38.622Z,5.27
2018-05-02T05:36:06.320Z,5.13
2018-05-02T05:38:33.901Z,5.30
2018-05-02T05:41:01.596Z,4.50
2018-05-02T05:43:29.261Z,4.30
2018-05-02T05:45:56.837Z,5.40
2018-05-02T05:48:24.418Z,5.40
2018-05-02T05:50:52.054Z,5.27
2018-05-02T05:53:20.414Z,5.30
2018-05-02T05:55:48.014Z,5.13
2018-05-02T05:58:15.621Z,5.40
2018-05-02T06:00:43.233Z,4.90
2018-05-02T06:03:10.868Z,5.30
2018-05-02T06:05:39.235Z,5.17
2018-05-02T06:08:06.803Z,5.07
2018-05-02T06:10:34.356Z,6.13
2018-05-02T06:13:02.096Z,5.70
2018-05-02T06:15:29.661Z,5.00
2018-05-02T06:17:57.299Z,5.77
2018-05-02T06:20:25.154Z,5.97
2018-05-02T06:22:52.755Z,5.50
2018-05-02T06:25:20.373Z,6.20
2018-05-02T06:27:48.090Z,6.00
2018-05-02T06:30:15.706Z,7.03
2018-05-02T06:32:43.365Z,6.70
2018-05-02T06:35:11.264Z,5.90
2018-05-02T06:37:39.668Z,6.20
2018-05-02T06:40:07.357Z,5.67
2018-05-02T06:42:35.099Z,5.20
2018-05-02T06:45:03.494Z,6.87
2018-05-02T06:47:31.159Z,6.93
2018-05-02T06:49:58.757Z,5.67
2018-05-02T06:52:26.645Z,6.03
2018-05-02T06:54:54.245Z,6.17
2018-05-02T06:57:21.870Z,7.90
2018-05-02T06:59:49.549Z,6.40
2018-05-02T07:02:17.118Z,5.87
2018-05-02T07:04:44.681Z,5.50
2018-05-02T07:07:12.615Z,6.43
2018-05-02T07:09:40.243Z,6.07
2018-05-02T07:12:07.805Z,7.13
2018-05-02T07:14:35.407Z,6.60
2018-05-02T07:17:03.130Z,12.70
2018-05-02T07:19:30.707Z,20.80
2018-05-02T07:21:59.128Z,6.40
2018-05-02T07:24:26.817Z,10.47
2018-05-02T07:26:54.406Z,11.43
2018-05-02T07:29:22.807Z,7.87
2018-05-02T07:42:57.970Z,9.83
2018-05-02T07:45:25.525Z,7.33
2018-05-02T07:47:53.152Z,7.53
2018-05-02T07:52:55.393Z,8.27
2018-05-02T07:55:23.734Z,6.10
2018-05-02T07:57:51.303Z,7.20
2018-05-02T08:00:18.924Z,7.60
2018-05-02T08:02:46.477Z,8.93
2018-05-02T08:05:14.080Z,7.47
2018-05-02T08:07:41.721Z,6.87
2018-05-02T08:10:09.249Z,6.20
2018-05-02T08:12:36.819Z,5.87
2018-05-02T08:15:04.397Z,5.17
2018-05-02T08:17:32.012Z,10.20
2018-05-02T08:20:00.386Z,7.50
2018-05-02T08:22:28.738Z,4.97
2018-05-02T08:24:56.308Z,13.63
2018-05-02T08:27:24.024Z,7.73
2018-05-02T08:29:51.637Z,6.43
2018-05-02T08:32:19.990Z,5.43
2018-05-02T08:34:47.764Z,5.60
2018-05-02T08:37:15.315Z,5.10
2018-05-02T08:39:43.029Z,5.70
2018-05-02T08:42:10.695Z,10.87
2018-05-02T08:44:38.361Z,5.10
2018-05-02T08:47:05.925Z,5.57
2018-05-02T08:49:33.518Z,5.77
2018-05-02T08:52:01.069Z,5.30
2018-05-02T08:54:28.689Z,4.40
2018-05-02T08:56:56.269Z,4.47
2018-05-02T09:23:36.428Z,4.70
2018-05-02T09:26:04.174Z,4.07
2018-05-02T09:28:31.741Z,6.17
2018-05-02T09:30:59.338Z,4.70
2018-05-02T09:33:26.955Z,6.80
2018-05-02T09:35:54.526Z,4.20
2018-05-02T09:38:22.085Z,5.20
2018-05-02T09:40:49.683Z,4.93
2018-05-02T09:43:17.388Z,4.53
2018-05-02T09:45:45.013Z,4.30
2018-05-02T09:48:13.427Z,5.20
2018-05-02T09:50:40.988Z,4.70
2018-05-02T09:53:08.568Z,4.50
2018-05-02T09:55:36.149Z,4.53
2018-05-02T09:58:03.749Z,3.83
2018-05-02T10:00:31.301Z,4.30
2018-05-02T10:02:58.896Z,4.17
2018-05-02T10:05:26.441Z,3.47
2018-05-02T10:07:54.057Z,3.93
2018-05-02T10:10:22.376Z,3.90
2018-05-02T10:12:50.104Z,4.57
2018-05-02T10:15:17.613Z,4.70
2018-05-02T10:17:45.364Z,4.13
2018-05-02T10:20:13.116Z,3.67
2018-05-02T10:22:40.777Z,3.40
2018-05-02T10:25:08.373Z,4.17
2018-05-02T10:27:36.205Z,3.80
2018-05-02T10:30:03.804Z,3.93
2018-05-02T10:32:31.365Z,4.50
2018-05-02T10:34:58.978Z,4.63
2018-05-02T10:37:26.535Z,5.30
2018-05-02T10:39:54.322Z,5.40
2018-05-02T10:42:21.904Z,5.17
2018-05-02T10:44:49.631Z,5.43
2018-05-02T10:47:17.281Z,5.40
2018-05-02T10:49:45.005Z,5.27
2018-05-02T10:52:12.549Z,5.60
2018-05-02T10:54:42.471Z,5.17
2018-05-02T10:57:10.281Z,5.33
2018-05-02T10:59:37.893Z,5.13
2018-05-02T11:02:05.449Z,6.30
2018-05-02T11:04:35.117Z,5.70
2018-05-02T11:07:03.086Z,4.90
2018-05-02T11:09:30.734Z,5.90
2018-05-02T11:11:58.335Z,5.40
2018-05-02T11:26:35.218Z,5.00
2018-05-02T11:29:03.582Z,5.13
2018-05-02T11:31:31.929Z,5.90
2018-05-02T11:33:59.525Z,4.67
2018-05-02T11:36:27.903Z,5.43
2018-05-02T11:38:56.271Z,5.60
2018-05-02T11:41:23.974Z,4.77
2018-05-02T11:43:51.582Z,3.97
2018-05-02T11:46:19.176Z,4.70
2018-05-02T11:48:47.513Z,5.00
2018-05-02T11:51:15.139Z,4.30
2018-05-02T11:53:42.743Z,5.97
2018-05-02T11:56:10.336Z,4.37
2018-05-02T11:58:37.962Z,4.43
2018-05-02T12:01:05.589Z,5.37
2018-05-02T12:03:33.260Z,4.23
2018-05-02T12:06:00.815Z,4.40
2018-05-02T12:08:28.385Z,5.70
2018-05-02T12:10:55.989Z,3.70
2018-05-02T12:13:23.565Z,6.20
2018-05-02T12:15:51.250Z,4.20
2018-05-02T12:18:18.817Z,3.73
2018-05-02T12:35:59.118Z,4.80
2018-05-02T12:38:26.713Z,4.87
2018-05-02T12:40:54.529Z,5.90
2018-05-02T12:43:22.209Z,4.23
2018-05-02T12:45:49.828Z,6.63
2018-05-02T13:00:06.832Z,3.80
2018-05-02T13:02:34.515Z,4.17
2018-05-02T13:05:02.130Z,3.53
2018-05-02T13:07:29.837Z,3.80
2018-05-02T13:09:57.397Z,3.83
2018-05-02T13:12:24.976Z,5.83
2018-05-02T13:14:52.601Z,5.07
2018-05-02T13:17:20.194Z,6.30
2018-05-02T13:19:47.765Z,4.80
2018-05-02T13:22:15.336Z,5.10
2018-05-02T13:24:43.833Z,4.20
2018-05-02T13:27:11.505Z,3.60
2018-05-02T13:29:39.068Z,4.83
2018-05-02T13:32:06.665Z,7.93
2018-05-02T13:34:34.255Z,3.60
2018-05-02T13:37:02.620Z,5.73
2018-05-02T13:39:30.339Z,3.23
2018-05-02T13:41:57.921Z,3.90
2018-05-02T13:44:25.557Z,7.07
2018-05-02T13:46:53.118Z,4.20
2018-05-02T13:49:20.782Z,4.03
2018-05-02T13:51:48.341Z,4.13
2018-05-02T13:54:15.935Z,4.40
2018-05-02T13:56:43.502Z,3.47
2018-05-02T13:59:11.913Z,4.17
2018-05-02T14:01:39.478Z,2.60
2018-05-02T14:04:07.218Z,3.30
2018-05-02T14:06:34.791Z,3.40
2018-05-02T14:09:02.478Z,3.97
2018-05-02T14:11:30.040Z,4.57
2018-05-02T14:13:57.626Z,3.50
2018-05-02T14:16:25.213Z,3.87
2018-05-02T14:18:52.793Z,3.50
2018-05-02T14:21:20.453Z,3.60
2018-05-02T14:23:48.018Z,3.10
2018-05-02T14:26:15.622Z,3.23
2018-05-02T14:28:43.195Z,3.00
2018-05-02T14:31:11.527Z,2.60
2018-05-02T14:33:39.118Z,2.83
2018-05-02T14:36:07.752Z,2.20
2018-05-02T14:38:35.404Z,2.40
2018-05-02T14:41:03.029Z,3.00
2018-05-02T14:43:31.601Z,3.17
2018-05-02T14:45:59.981Z,2.60
2018-05-02T14:48:28.456Z,3.30
2018-05-02T14:50:56.038Z,3.20
2018-05-02T14:53:23.818Z,2.60
2018-05-02T14:55:51.377Z,2.30
2018-05-02T14:58:18.977Z,2.90
2018-05-02T15:00:46.565Z,3.00
2018-05-02T15:03:14.933Z,3.10
2018-05-02T15:05:42.573Z,3.60
2018-05-02T15:08:10.227Z,2.77
2018-05-02T15:10:37.749Z,3.10
2018-05-02T15:13:05.410Z,2.70
2018-05-02T15:15:33.102Z,2.60
2018-05-02T15:18:00.703Z,2.57
2018-05-02T15:20:29.044Z,2.93
2018-05-02T15:22:56.629Z,2.33
2018-05-02T15:25:24.265Z,2.80
2018-05-02T15:27:53.473Z,3.17
2018-05-02T15:30:21.144Z,3.40
2018-05-02T15:32:49.497Z,2.60
2018-05-02T15:35:17.065Z,2.83
2018-05-02T15:37:44.662Z,3.27
2018-05-02T15:40:12.266Z,3.00
2018-05-02T15:42:40.097Z,3.07
2018-05-02T15:45:07.667Z,3.00
2018-05-02T15:47:35.243Z,3.63
2018-05-02T15:50:02.850Z,3.50
2018-05-02T15:52:31.290Z,2.87
2018-05-02T15:54:59.053Z,3.00
2018-05-02T15:57:26.678Z,3.07
2018-05-02T15:59:54.293Z,3.40
2018-05-02T16:02:21.937Z,4.20
2018-05-02T16:04:49.532Z,3.70
2018-05-02T16:07:17.880Z,3.60
2018-05-02T16:09:45.491Z,3.30
2018-05-02T16:12:13.054Z,3.23
2018-05-02T16:14:40.640Z,3.80
2018-05-02T16:17:08.225Z,4.80
2018-05-02T16:19:35.808Z,4.10
2018-05-02T16:22:04.161Z,4.40
2018-05-02T16:24:32.490Z,4.60
2018-05-02T16:27:00.144Z,4.80
2018-05-02T16:29:27.710Z,3.80
2018-05-02T16:31:55.299Z,4.53
2018-05-02T16:34:22.865Z,4.03
2018-05-02T16:36:50.474Z,4.90
2018-05-02T16:39:18.048Z,3.70
2018-05-02T16:41:45.694Z,3.90
2018-05-02T16:44:13.257Z,4.90
2018-05-02T16:46:40.873Z,3.20
2018-05-02T16:49:08.470Z,4.40
2018-05-02T16:51:36.024Z,4.33
2018-05-02T16:54:03.717Z,3.87
2018-05-02T16:56:31.457Z,3.87
2018-05-02T16:58:59.149Z,4.07
2018-05-02T17:01:26.706Z,4.50
2018-05-02T17:03:54.293Z,4.50
2018-05-02T17:06:21.857Z,4.50
2018-05-02T17:08:50.231Z,3.97
2018-05-02T17:11:18.719Z,3.60
2018-05-02T17:13:46.294Z,3.70
2018-05-02T17:16:13.868Z,3.53
2018-05-02T17:18:41.425Z,3.00
2018-05-02T17:21:09.013Z,3.50
2018-05-02T17:23:36.574Z,3.60
2018-05-02T17:26:04.154Z,3.30
2018-05-02T17:28:31.711Z,4.03
2018-05-02T17:30:59.357Z,3.40
2018-05-02T17:33:27.097Z,3.57
2018-05-02T17:35:54.698Z,3.87
2018-05-02T17:38:23.077Z,3.80
2018-05-02T17:40:51.472Z,3.60
2018-05-02T17:43:19.024Z,3.87
2018-05-02T17:45:47.417Z,3.70
2018-05-02T17:48:14.978Z,3.90
2018-05-02T17:50:42.545Z,3.07
2018-05-02T17:53:10.125Z,3.80
2018-05-02T17:55:37.704Z,4.03
2018-05-02T17:58:05.422Z,2.87
2018-05-02T18:00:32.981Z,3.87
2018-05-02T18:03:00.593Z,2.70
2018-05-02T18:05:28.175Z,3.10
2018-05-02T18:07:56.582Z,2.77
2018-05-02T18:10:24.185Z,3.40
2018-05-02T18:12:51.857Z,3.10
2018-05-02T18:15:19.456Z,3.03
2018-05-02T18:17:47.117Z,2.60
2018-05-02T18:20:14.678Z,3.67
2018-05-02T18:22:44.070Z,3.27
2018-05-02T18:25:12.477Z,3.60
2018-05-02T18:27:40.199Z,3.33
2018-05-02T18:30:07.788Z,3.33
2018-05-02T18:32:35.442Z,2.90
2018-05-02T18:35:03.045Z,3.00
2018-05-02T18:37:30.633Z,3.10
2018-05-02T18:39:58.977Z,2.97
2018-05-02T18:42:26.558Z,4.23
2018-05-02T18:44:54.116Z,3.50
2018-05-02T18:47:22.602Z,4.03
2018-05-02T18:49:51.107Z,3.47
2018-05-02T18:52:18.715Z,3.23
2018-05-02T18:54:47.250Z,2.87
2018-05-02T18:57:14.953Z,3.20
2018-05-02T18:59:42.670Z,2.97
2018-05-02T19:02:10.260Z,3.63
2018-05-02T19:04:37.841Z,3.47
2018-05-02T19:07:05.510Z,4.13
2018-05-02T19:09:33.861Z,3.90
2018-05-02T19:12:01.446Z,3.83
2018-05-02T19:14:29.021Z,3.47
2018-05-02T19:16:57.395Z,4.27
2018-05-02T19:19:31.306Z,3.80
2018-05-02T19:21:59.702Z,3.50
2018-05-02T19:24:32.730Z,4.00
2018-05-02T19:27:00.353Z,4.00
2018-05-02T19:29:27.964Z,3.53
2018-05-02T19:32:01.912Z,4.00
2018-05-02T19:34:29.489Z,3.70
2018-05-02T19:36:57.090Z,4.03
2018-05-02T19:39:24.698Z,3.90
2018-05-02T19:41:57.917Z,3.53
2018-05-02T19:44:25.551Z,3.47
2018-05-02T19:46:53.077Z,4.23
2018-05-02T19:49:21.446Z,3.53
2018-05-02T19:51:55.457Z,4.00
2018-05-02T19:54:23.990Z,4.00
2018-05-02T19:56:51.652Z,4.27
2018-05-02T19:59:19.306Z,4.03
2018-05-02T20:01:52.618Z,3.80
2018-05-02T20:04:20.311Z,3.33
2018-05-02T20:06:48.724Z,4.33
2018-05-02T20:09:21.893Z,4.00
2018-05-02T20:11:55.788Z,4.00
2018-05-02T20:14:24.321Z,3.83
2018-05-02T20:16:52.013Z,3.40
2018-05-02T20:19:19.597Z,3.33
2018-05-02T20:21:47.993Z,4.20
2018-05-02T20:24:15.602Z,3.47
2018-05-02T20:26:43.265Z,3.90
2018-05-02T20:29:10.867Z,4.53
2018-05-02T20:31:38.446Z,4.20
2018-05-02T20:34:06.100Z,5.00
2018-05-02T20:36:33.761Z,6.93
2018-05-02T20:39:01.338Z,8.77
2018-05-02T20:41:28.976Z,7.97
2018-05-02T20:43:56.629Z,6.17
2018-05-02T20:46:24.203Z,5.10
2018-05-02T20:48:51.771Z,5.40
2018-05-02T20:51:19.389Z,4.13
2018-05-02T20:53:47.737Z,4.83
2018-05-02T20:56:15.400Z,3.70
2018-05-02T20:58:42.965Z,3.67
2018-05-02T21:01:10.573Z,3.73
2018-05-02T21:03:38.173Z,4.10
2018-05-02T21:06:05.787Z,4.13
2018-05-02T21:08:33.516Z,3.90
2018-05-02T21:11:01.882Z,4.27
2018-05-02T21:13:29.474Z,4.07
2018-05-02T21:15:57.079Z,4.07
2018-05-02T21:18:24.653Z,4.27
2018-05-02T21:20:52.249Z,4.40
2018-05-02T21:23:19.836Z,3.93
2018-05-02T21:25:47.455Z,3.40
2018-05-02T21:28:15.066Z,4.20
2018-05-02T21:30:42.676Z,4.10
2018-05-02T21:33:11.017Z,3.80
2018-05-02T21:35:38.641Z,4.60
2018-05-02T21:38:06.193Z,4.03
2018-05-02T21:40:33.957Z,4.00
2018-05-02T21:43:01.610Z,4.13
2018-05-02T21:45:29.190Z,3.60
2018-05-02T21:47:56.768Z,3.67
2018-05-02T21:50:24.392Z,3.97
2018-05-02T21:52:52.052Z,3.60
2018-05-02T21:55:19.773Z,3.47
2018-05-02T21:57:47.357Z,4.37
2018-05-02T22:00:15.032Z,3.80
2018-05-02T22:02:42.621Z,3.80
2018-05-02T22:05:10.209Z,3.83
2018-05-02T22:07:37.772Z,3.70
2018-05-02T22:10:06.095Z,4.43
2018-05-02T22:12:33.744Z,4.23
2018-05-02T22:15:01.293Z,3.37
2018-05-02T22:17:28.879Z,3.70
2018-05-02T22:19:56.472Z,3.90
2018-05-02T22:22:24.820Z,3.53
2018-05-02T22:24:52.409Z,3.50
2018-05-02T22:27:19.970Z,3.70
2018-05-02T22:29:47.557Z,3.60
2018-05-02T22:32:15.231Z,3.67
2018-05-02T22:34:42.800Z,4.10
2018-05-02T22:37:10.383Z,3.30
2018-05-02T22:39:37.954Z,3.80
2018-05-02T22:42:06.447Z,3.47
2018-05-02T22:44:34.046Z,3.73
2018-05-02T22:47:01.709Z,3.40
2018-05-02T22:49:29.368Z,3.57
2018-05-02T22:51:57.028Z,3.63
2018-05-02T22:54:24.623Z,3.20
2018-05-02T22:56:52.188Z,3.33
2018-05-02T22:59:19.766Z,3.10
2018-05-02T23:01:48.069Z,3.70
2018-05-02T23:04:15.655Z,3.00
2018-05-02T23:06:43.234Z,3.17
2018-05-02T23:09:10.836Z,3.60
2018-05-02T23:11:39.277Z,3.43
2018-05-02T23:14:06.837Z,3.60
2018-05-02T23:16:35.329Z,3.43
2018-05-02T23:19:02.925Z,4.20
2018-05-02T23:21:30.601Z,3.17
2018-05-02T23:23:58.357Z,3.83
2018-05-02T23:26:25.948Z,3.40
2018-05-02T23:28:53.536Z,3.60
2018-05-02T23:31:21.127Z,4.10
2018-05-02T23:33:48.721Z,3.40
2018-05-02T23:36:16.321Z,3.73
2018-05-02T23:38:44.642Z,3.70
2018-05-02T23:41:12.299Z,3.40
2018-05-02T23:43:39.928Z,3.67
2018-05-02T23:46:08.540Z,4.00
2018-05-02T23:48:36.105Z,3.93
2018-05-02T23:51:03.753Z,4.10
2018-05-02T23:53:31.305Z,4.00
2018-05-02T23:55:58.901Z,3.43
2018-05-02T23:58:26.473Z,3.93
